Time;durP1;ratioP1;P1;durP2;ratioP2;P2;SDS_P1;SDS_P2;PMS_P1;PMS_P2;Temp;Humidity;BMP_temperature;BMP_pressure;BME280_temperature;BME280_humidity;BME280_pressure;Samples;Min_cycle;Max_cycle;Signal;HPM_P1;HPM_P2
2022/08/30 00:02:56;;;;;;;16.95;9.55;;;16.80;85.30;;;;;;5005926;28;20117;-73
2022/08/30 00:05:22;;;;;;;19.70;10.15;;;16.80;85.50;;;;;;5003888;28;20036;-73
2022/08/30 00:07:49;;;;;;;17.67;10.48;;;16.80;85.70;;;;;;5003082;28;20042;-73
2022/08/30 00:10:15;;;;;;;17.50;10.15;;;16.80;85.60;;;;;;5014855;28;20092;-73
2022/08/30 00:12:42;;;;;;;20.10;11.13;;;16.80;85.70;;;;;;4998646;28;20042;-73
2022/08/30 00:15:11;;;;;;;18.92;9.75;;;16.80;85.70;;;;;;5014149;28;20033;-73
2022/08/30 00:17:36;;;;;;;17.30;10.70;;;16.80;85.70;;;;;;5000843;28;20124;-73
2022/08/30 00:20:08;;;;;;;16.85;10.20;;;16.80;85.70;;;;;;5007865;28;20599;-73
2022/08/30 00:22:34;;;;;;;13.38;10.05;;;16.80;85.80;;;;;;5009584;28;20053;-73
2022/08/30 00:25:00;;;;;;;16.27;10.77;;;16.80;85.90;;;;;;5001993;28;20469;-73
2022/08/30 00:27:27;;;;;;;14.68;10.13;;;16.80;85.70;;;;;;5003371;28;20046;-73
2022/08/30 00:29:54;;;;;;;16.30;11.13;;;16.80;85.90;;;;;;5010209;28;20595;-73
2022/08/30 00:32:20;;;;;;;19.77;11.10;;;16.80;85.80;;;;;;5005316;28;20197;-73
2022/08/30 00:34:55;;;;;;;19.88;11.45;;;16.80;85.90;;;;;;5003767;28;20401;-73
2022/08/30 00:37:20;;;;;;;19.08;10.85;;;16.80;86.00;;;;;;4998638;28;20553;-73
2022/08/30 00:39:46;;;;;;;15.52;10.77;;;16.90;85.90;;;;;;5014614;28;20666;-73
2022/08/30 00:42:14;;;;;;;19.23;11.52;;;16.90;86.10;;;;;;5011235;28;20358;-73
2022/08/30 00:44:41;;;;;;;20.25;11.30;;;17.00;86.00;;;;;;5005550;28;20176;-74
2022/08/30 00:47:07;;;;;;;21.52;12.00;;;17.00;86.10;;;;;;5010256;28;20069;-73
2022/08/30 00:49:35;;;;;;;20.45;11.82;;;17.00;86.20;;;;;;5019485;28;20068;-74
2022/08/30 00:52:03;;;;;;;17.15;12.02;;;17.00;86.20;;;;;;5014913;28;20038;-73
2022/08/30 00:54:31;;;;;;;17.95;12.30;;;17.10;86.10;;;;;;5012808;28;20081;-73
2022/08/30 00:56:57;;;;;;;21.17;12.77;;;17.10;86.30;;;;;;5015939;28;20397;-73
2022/08/30 00:59:25;;;;;;;19.50;11.30;;;17.10;86.10;;;;;;5008224;28;20309;-72
2022/08/30 01:01:51;;;;;;;18.70;12.90;;;17.10;86.10;;;;;;5017177;28;20042;-73
2022/08/30 01:04:20;;;;;;;23.25;12.63;;;17.10;86.10;;;;;;5002880;28;20100;-73
2022/08/30 01:06:46;;;;;;;21.50;12.77;;;17.10;86.00;;;;;;4998293;28;20193;-72
2022/08/30 01:09:13;;;;;;;20.13;12.93;;;17.10;86.30;;;;;;4998753;28;20037;-72
2022/08/30 01:11:41;;;;;;;21.38;12.77;;;17.10;86.30;;;;;;5009062;28;20045;-73
2022/08/30 01:14:10;;;;;;;20.15;13.05;;;17.10;86.40;;;;;;5005967;28;20075;-73
2022/08/30 01:16:38;;;;;;;21.25;13.77;;;17.10;86.60;;;;;;4993554;28;20037;-73
2022/08/30 01:19:07;;;;;;;19.38;12.85;;;17.00;86.60;;;;;;5008267;28;20039;-73
2022/08/30 01:21:46;;;;;;;20.40;13.55;;;17.10;86.70;;;;;;4998750;28;20485;-74
2022/08/30 01:24:13;;;;;;;22.40;13.98;;;17.10;86.80;;;;;;5010804;28;20105;-72
2022/08/30 01:26:40;;;;;;;19.75;14.07;;;17.10;86.80;;;;;;5002945;28;20035;-73
2022/08/30 01:29:10;;;;;;;22.58;14.05;;;17.00;87.00;;;;;;5015510;28;20041;-73
2022/08/30 01:31:36;;;;;;;22.95;14.05;;;17.00;87.10;;;;;;4995494;28;20334;-73
2022/08/30 01:34:04;;;;;;;21.50;12.75;;;17.00;87.10;;;;;;5002097;28;20038;-73
2022/08/30 01:36:30;;;;;;;19.55;13.82;;;17.10;87.10;;;;;;5004363;28;20038;-72
2022/08/30 01:38:57;;;;;;;20.35;13.05;;;17.00;86.90;;;;;;5020513;28;20452;-73
2022/08/30 01:41:28;;;;;;;21.30;13.25;;;17.10;87.00;;;;;;4999110;28;20037;-73
2022/08/30 01:43:58;;;;;;;18.38;12.32;;;17.00;87.00;;;;;;5020858;28;20477;-73
2022/08/30 01:46:29;;;;;;;23.88;13.93;;;17.10;87.00;;;;;;5009020;28;20483;-73
2022/08/30 01:48:56;;;;;;;23.73;13.55;;;17.00;87.00;;;;;;5017058;28;20036;-73
2022/08/30 01:51:24;;;;;;;21.00;13.65;;;17.10;87.00;;;;;;5000282;28;20064;-74
2022/08/30 01:53:50;;;;;;;21.48;13.35;;;17.10;86.90;;;;;;5003628;28;20044;-73
2022/08/30 01:56:17;;;;;;;17.85;13.25;;;17.00;86.90;;;;;;4999975;28;20030;-73
2022/08/30 01:58:43;;;;;;;21.45;14.45;;;17.00;87.00;;;;;;5000467;28;20104;-72
2022/08/30 02:01:13;;;;;;;23.23;14.10;;;17.00;87.20;;;;;;5002937;28;20048;-73
2022/08/30 02:03:41;;;;;;;21.00;13.75;;;17.00;87.20;;;;;;5012266;28;20647;-73
2022/08/30 02:06:11;;;;;;;23.33;14.18;;;17.00;87.10;;;;;;4992074;28;20049;-73
2022/08/30 02:08:39;;;;;;;19.27;13.55;;;17.00;87.20;;;;;;5006967;28;20057;-72
2022/08/30 02:11:05;;;;;;;23.00;14.43;;;16.90;87.20;;;;;;5003976;28;20073;-73
2022/08/30 02:13:32;;;;;;;21.77;14.07;;;16.90;87.30;;;;;;5006482;28;20053;-72
2022/08/30 02:15:58;;;;;;;21.35;14.13;;;16.80;87.30;;;;;;5011032;28;20065;-73
2022/08/30 02:18:25;;;;;;;23.20;15.00;;;16.80;87.40;;;;;;5006148;28;20051;-73
2022/08/30 02:20:50;;;;;;;18.60;13.65;;;16.80;87.60;;;;;;5005998;28;20041;-72
2022/08/30 02:23:17;;;;;;;20.02;14.02;;;16.80;87.60;;;;;;4998412;28;20049;-73
2022/08/30 02:25:45;;;;;;;19.60;13.80;;;16.80;87.60;;;;;;4999485;28;20045;-73
2022/08/30 02:28:14;;;;;;;23.52;15.27;;;16.70;87.60;;;;;;5009526;28;20721;-73
2022/08/30 02:30:40;;;;;;;22.80;15.02;;;16.70;87.80;;;;;;4993852;28;20117;-72
2022/08/30 02:33:06;;;;;;;28.40;15.43;;;16.60;88.00;;;;;;4996062;28;20045;-73
2022/08/30 02:35:31;;;;;;;22.73;15.35;;;16.60;88.00;;;;;;4993805;28;20039;-73
2022/08/30 02:37:57;;;;;;;24.02;15.93;;;16.60;88.10;;;;;;5004465;28;20033;-73
2022/08/30 02:40:23;;;;;;;22.27;15.95;;;16.60;88.20;;;;;;5001030;28;20072;-73
2022/08/30 02:42:48;;;;;;;20.40;15.18;;;16.60;88.20;;;;;;5012520;28;20091;-73
2022/08/30 02:45:14;;;;;;;26.48;16.58;;;16.50;88.30;;;;;;4998633;28;20041;-73
2022/08/30 02:47:41;;;;;;;23.67;16.65;;;16.50;88.40;;;;;;4991836;28;20492;-73
2022/08/30 02:50:08;;;;;;;23.00;15.60;;;16.50;88.30;;;;;;5009646;28;20032;-73
2022/08/30 02:52:35;;;;;;;24.58;15.80;;;16.50;88.40;;;;;;4992561;28;20069;-73
2022/08/30 02:55:02;;;;;;;22.00;15.98;;;16.50;88.40;;;;;;5007526;28;20114;-74
2022/08/30 02:57:27;;;;;;;21.52;16.17;;;16.50;88.50;;;;;;4997616;28;20029;-72
2022/08/30 02:59:53;;;;;;;24.75;15.68;;;16.60;88.30;;;;;;5013895;28;20114;-72
2022/08/30 03:02:20;;;;;;;24.80;15.95;;;16.50;88.40;;;;;;5001006;28;20042;-72
2022/08/30 03:04:47;;;;;;;21.67;15.63;;;16.50;88.40;;;;;;5004463;28;20037;-72
2022/08/30 03:07:14;;;;;;;22.98;14.30;;;16.60;88.40;;;;;;5010253;28;20398;-72
2022/08/30 03:09:39;;;;;;;22.80;14.38;;;16.60;88.30;;;;;;5009590;28;20033;-72
2022/08/30 03:12:06;;;;;;;22.25;15.38;;;16.60;88.20;;;;;;5005138;28;20492;-73
2022/08/30 03:14:35;;;;;;;23.35;14.32;;;16.60;88.20;;;;;;5014413;28;20267;-72
2022/08/30 03:17:02;;;;;;;24.92;15.25;;;16.60;88.00;;;;;;5006000;28;20034;-73
2022/08/30 03:19:28;;;;;;;20.08;14.38;;;16.60;88.00;;;;;;5009345;28;20068;-72
2022/08/30 03:21:54;;;;;;;20.88;14.25;;;16.60;88.10;;;;;;5006779;28;20054;-72
2022/08/30 03:24:20;;;;;;;20.33;14.70;;;16.60;88.10;;;;;;4999168;28;20043;-72
2022/08/30 03:26:46;;;;;;;24.30;15.43;;;16.60;88.10;;;;;;4999519;28;20038;-72
2022/08/30 03:29:11;;;;;;;22.63;13.82;;;16.60;88.00;;;;;;5007859;28;20029;-73
2022/08/30 03:31:37;;;;;;;21.60;13.82;;;16.60;88.00;;;;;;4998644;28;20054;-72
2022/08/30 03:34:04;;;;;;;21.63;14.60;;;16.60;87.90;;;;;;5000855;28;20488;-73
2022/08/30 03:36:30;;;;;;;23.02;15.07;;;16.60;87.90;;;;;;5004126;28;20095;-72
2022/08/30 03:38:56;;;;;;;23.80;15.15;;;16.60;87.90;;;;;;5002243;28;20046;-72
2022/08/30 03:41:23;;;;;;;22.75;14.00;;;16.60;88.10;;;;;;5001780;28;20051;-73
2022/08/30 03:43:49;;;;;;;20.92;14.25;;;16.60;88.10;;;;;;5002526;28;20330;-71
2022/08/30 03:46:15;;;;;;;16.27;14.07;;;16.60;88.00;;;;;;4998124;28;20543;-72
2022/08/30 03:48:41;;;;;;;20.13;14.05;;;16.60;87.90;;;;;;5004544;28;20022;-72
2022/08/30 03:51:07;;;;;;;22.23;14.25;;;16.60;88.10;;;;;;4998891;28;20033;-73
2022/08/30 03:53:33;;;;;;;22.67;15.18;;;16.60;88.20;;;;;;5003910;28;20042;-72
2022/08/30 03:55:59;;;;;;;22.17;15.57;;;16.50;88.10;;;;;;5008976;28;20461;-72
2022/08/30 03:58:24;;;;;;;31.58;16.00;;;16.60;88.20;;;;;;5001611;28;20030;-73
2022/08/30 04:00:50;;;;;;;22.23;14.30;;;16.60;88.30;;;;;;5011703;28;20029;-73
2022/08/30 04:03:17;;;;;;;21.70;14.80;;;16.60;88.10;;;;;;5004063;28;20045;-74
2022/08/30 04:05:44;;;;;;;21.25;15.52;;;16.60;88.20;;;;;;4997789;28;20386;-73
2022/08/30 04:08:09;;;;;;;22.77;14.07;;;16.60;88.20;;;;;;5002028;28;20042;-73
2022/08/30 04:10:35;;;;;;;22.58;15.15;;;16.60;88.10;;;;;;5002943;28;20037;-73
2022/08/30 04:13:01;;;;;;;19.02;14.05;;;16.60;88.00;;;;;;5003628;28;20139;-74
2022/08/30 04:15:28;;;;;;;21.08;15.45;;;16.60;88.00;;;;;;4997121;28;20806;-74
2022/08/30 04:17:53;;;;;;;19.38;14.32;;;16.60;87.90;;;;;;4991712;28;20054;-74
2022/08/30 04:20:19;;;;;;;21.15;13.45;;;16.60;88.00;;;;;;5005310;28;20062;-73
2022/08/30 04:22:45;;;;;;;18.27;14.20;;;16.60;88.00;;;;;;5009604;28;20026;-74
2022/08/30 04:25:12;;;;;;;20.08;14.68;;;16.60;88.00;;;;;;5011482;28;20104;-73
2022/08/30 04:27:38;;;;;;;17.92;13.52;;;16.60;87.90;;;;;;5002455;28;20038;-74
2022/08/30 04:30:04;;;;;;;24.15;15.30;;;16.60;87.90;;;;;;5001433;28;20027;-73
2022/08/30 04:32:30;;;;;;;20.52;14.32;;;16.60;87.80;;;;;;4995068;28;20034;-73
2022/08/30 04:34:58;;;;;;;22.40;15.52;;;16.60;87.80;;;;;;5000672;28;20041;-74
2022/08/30 04:37:24;;;;;;;22.40;14.70;;;16.60;87.80;;;;;;5011738;28;20121;-73
2022/08/30 04:39:50;;;;;;;21.70;14.68;;;16.60;87.80;;;;;;5001682;28;20045;-74
2022/08/30 04:42:15;;;;;;;22.17;13.63;;;16.60;87.70;;;;;;4998034;28;20038;-73
2022/08/30 04:44:41;;;;;;;21.20;15.23;;;16.60;87.80;;;;;;5006202;28;20065;-74
2022/08/30 04:47:08;;;;;;;18.83;14.15;;;16.60;87.90;;;;;;5003643;28;20041;-73
2022/08/30 04:49:34;;;;;;;20.15;14.52;;;16.60;87.70;;;;;;4999020;28;20125;-73
2022/08/30 04:52:00;;;;;;;22.73;15.52;;;16.60;87.80;;;;;;5013902;28;20061;-73
2022/08/30 04:54:26;;;;;;;21.75;15.82;;;16.60;87.70;;;;;;5004302;28;20034;-73
2022/08/30 04:56:51;;;;;;;20.23;14.60;;;16.60;87.80;;;;;;4994280;28;20038;-74
2022/08/30 04:59:17;;;;;;;22.63;16.33;;;16.60;87.80;;;;;;5005053;28;20404;-73
2022/08/30 05:01:43;;;;;;;21.08;15.80;;;16.60;87.60;;;;;;5000502;28;20076;-73
2022/08/30 05:04:08;;;;;;;21.92;15.88;;;16.60;87.50;;;;;;5002117;28;20054;-73
2022/08/30 05:06:35;;;;;;;20.92;15.95;;;16.60;87.70;;;;;;5001330;28;20496;-74
2022/08/30 05:09:00;;;;;;;23.75;17.13;;;16.50;87.70;;;;;;5019163;28;20110;-74
2022/08/30 05:11:27;;;;;;;18.80;15.80;;;16.60;87.80;;;;;;4995392;28;20038;-73
2022/08/30 05:13:53;;;;;;;26.77;17.27;;;16.60;87.60;;;;;;4999351;28;20046;-74
2022/08/30 05:16:18;;;;;;;27.38;16.98;;;16.60;87.60;;;;;;5002869;28;20137;-73
2022/08/30 05:18:45;;;;;;;22.45;17.30;;;16.60;87.90;;;;;;5013154;28;20037;-73
2022/08/30 05:21:14;;;;;;;24.77;17.15;;;16.60;87.80;;;;;;5014363;28;20041;-73
2022/08/30 05:23:41;;;;;;;22.13;16.42;;;16.60;87.80;;;;;;5008436;28;20092;-73
2022/08/30 05:26:16;;;;;;;22.90;15.70;;;16.60;87.60;;;;;;5002664;28;20884;-73
2022/08/30 05:28:43;;;;;;;22.55;16.58;;;16.60;87.50;;;;;;5003678;28;20063;-73
2022/08/30 05:31:19;;;;;;;20.85;15.60;;;16.70;87.40;;;;;;5009997;28;20030;-72
2022/08/30 05:33:46;;;;;;;20.98;16.73;;;16.70;87.30;;;;;;5011167;28;20833;-73
2022/08/30 05:36:13;;;;;;;19.65;16.05;;;16.80;87.20;;;;;;5004873;28;20045;-72
2022/08/30 05:38:39;;;;;;;24.65;16.48;;;16.70;87.00;;;;;;5011259;28;20121;-72
2022/08/30 05:41:05;;;;;;;24.10;16.40;;;16.70;87.10;;;;;;5008747;28;20152;-72
2022/08/30 05:43:31;;;;;;;21.58;16.00;;;16.70;87.10;;;;;;5009287;28;20125;-72
2022/08/30 05:45:59;;;;;;;21.45;16.48;;;16.80;86.90;;;;;;5005443;28;20034;-73
2022/08/30 05:48:25;;;;;;;24.00;15.95;;;16.80;86.60;;;;;;4999909;28;20037;-72
2022/08/30 05:50:59;;;;;;;19.13;14.90;;;16.90;86.70;;;;;;5001303;28;20331;-72
2022/08/30 05:53:25;;;;;;;;;;;16.80;86.50;;;;;;4998721;28;20037;-72
2022/08/30 05:55:51;;;;;;;20.60;14.60;;;16.90;86.40;;;;;;4998303;28;19913;-73
2022/08/30 05:58:17;;;;;;;22.67;16.63;;;16.80;86.50;;;;;;5005843;28;20060;-72
2022/08/30 06:00:43;;;;;;;21.05;16.92;;;16.90;86.40;;;;;;4995211;28;20038;-73
2022/08/30 06:03:11;;;;;;;20.38;15.50;;;16.80;86.50;;;;;;5011223;28;20381;-72
2022/08/30 06:05:36;;;;;;;23.80;16.65;;;16.80;86.80;;;;;;5012338;28;20806;-73
2022/08/30 06:08:02;;;;;;;19.30;15.90;;;16.80;86.70;;;;;;5006828;28;20041;-72
2022/08/30 06:10:28;;;;;;;18.63;15.73;;;16.90;86.60;;;;;;5004598;28;20038;-72
2022/08/30 06:12:54;;;;;;;19.92;15.73;;;16.90;86.30;;;;;;4998975;28;20054;-72
2022/08/30 06:15:19;;;;;;;21.27;15.52;;;17.00;86.20;;;;;;4994529;28;20045;-72
2022/08/30 06:17:46;;;;;;;20.00;15.35;;;17.00;86.20;;;;;;5004779;28;20038;-72
2022/08/30 06:20:12;;;;;;;25.98;16.15;;;17.00;86.20;;;;;;5006220;28;20061;-72
2022/08/30 06:22:39;;;;;;;18.15;14.55;;;17.10;86.00;;;;;;5004100;28;20040;-72
2022/08/30 06:25:06;;;;;;;22.75;15.80;;;17.20;85.80;;;;;;5000098;28;20041;-73
2022/08/30 06:27:31;;;;;;;18.77;15.50;;;17.30;85.40;;;;;;4993583;28;20060;-72
2022/08/30 06:29:57;;;;;;;23.42;15.75;;;17.30;85.20;;;;;;4996576;28;20453;-72
2022/08/30 06:32:23;;;;;;;18.10;13.82;;;17.40;84.90;;;;;;4989320;28;20549;-72
2022/08/30 06:34:49;;;;;;;19.70;15.60;;;17.50;84.80;;;;;;5003329;28;20052;-73
2022/08/30 06:37:14;;;;;;;20.83;15.77;;;17.50;84.60;;;;;;5000061;28;20050;-72
2022/08/30 06:39:40;;;;;;;22.00;15.02;;;17.50;84.50;;;;;;5010864;28;20042;-72
2022/08/30 06:42:06;;;;;;;20.15;16.00;;;17.50;84.90;;;;;;5007700;28;20042;-72
2022/08/30 06:44:31;;;;;;;18.90;15.70;;;17.60;84.90;;;;;;5003727;28;20062;-72
2022/08/30 06:46:57;;;;;;;20.08;15.45;;;17.50;84.50;;;;;;5009453;28;20045;-72
2022/08/30 06:49:23;;;;;;;21.13;16.15;;;17.70;84.20;;;;;;5010496;28;20389;-72
2022/08/30 06:51:50;;;;;;;18.35;14.77;;;17.70;84.10;;;;;;4997141;28;20478;-71
2022/08/30 06:54:16;;;;;;;22.23;15.48;;;17.70;84.00;;;;;;4990003;28;20156;-71
2022/08/30 06:56:41;;;;;;;21.58;15.90;;;17.70;83.90;;;;;;5000838;28;20112;-72
2022/08/30 06:59:07;;;;;;;21.73;15.65;;;17.70;83.70;;;;;;4999178;28;20036;-72
2022/08/30 07:01:33;;;;;;;21.98;16.00;;;17.70;83.60;;;;;;4998907;28;20129;-72
2022/08/30 07:03:59;;;;;;;20.50;15.20;;;17.70;83.70;;;;;;5007398;28;20537;-73
2022/08/30 07:06:26;;;;;;;21.88;16.80;;;17.80;83.80;;;;;;5012973;28;20026;-73
2022/08/30 07:08:52;;;;;;;22.15;16.13;;;17.90;83.10;;;;;;5006035;28;20106;-73
2022/08/30 07:11:44;;;;;;;23.92;15.43;;;17.90;83.40;;;;;;4997048;28;20365;-72
2022/08/30 07:14:10;;;;;;;22.27;15.52;;;18.10;83.00;;;;;;5009779;28;20109;-72
2022/08/30 07:16:36;;;;;;;20.48;15.95;;;18.20;81.60;;;;;;4996699;28;20401;-73
2022/08/30 07:19:03;;;;;;;19.67;14.45;;;18.20;82.40;;;;;;4992394;28;20026;-73
2022/08/30 07:21:36;;;;;;;24.13;16.85;;;18.30;81.50;;;;;;4992151;28;20029;-72
2022/08/30 07:24:03;;;;;;;22.80;16.48;;;18.40;81.60;;;;;;5000207;28;20072;-74
2022/08/30 07:26:45;;;;;;;17.63;15.18;;;18.60;81.10;;;;;;5001876;28;20111;-72
2022/08/30 07:29:11;;;;;;;19.45;15.15;;;18.70;80.30;;;;;;4996843;28;20866;-73
2022/08/30 07:31:37;;;;;;;21.42;15.65;;;18.70;80.30;;;;;;4995801;28;20040;-73
2022/08/30 07:34:05;;;;;;;20.38;15.50;;;18.70;80.20;;;;;;4997188;28;20133;-72
2022/08/30 07:36:30;;;;;;;19.65;15.85;;;18.70;79.90;;;;;;4997481;28;20080;-74
2022/08/30 07:38:56;;;;;;;21.77;15.63;;;18.60;80.20;;;;;;5006097;28;20521;-73
2022/08/30 07:41:29;;;;;;;23.02;15.52;;;18.70;80.00;;;;;;5004529;28;20034;-73
2022/08/30 07:43:56;;;;;;;20.25;16.38;;;18.80;80.20;;;;;;5008318;28;20188;-73
2022/08/30 07:46:23;;;;;;;20.17;15.95;;;18.90;79.40;;;;;;5002318;28;20109;-73
2022/08/30 07:48:49;;;;;;;18.63;14.27;;;19.00;79.10;;;;;;4989557;28;20027;-73
2022/08/30 07:51:18;;;;;;;20.80;15.25;;;19.20;79.00;;;;;;4998340;28;20100;-72
2022/08/30 07:53:45;;;;;;;18.45;14.07;;;19.40;78.30;;;;;;5007536;28;20473;-72
2022/08/30 07:56:10;;;;;;;17.30;14.55;;;19.70;77.60;;;;;;4999900;28;20030;-73
2022/08/30 07:58:36;;;;;;;22.73;15.35;;;19.90;76.50;;;;;;5001773;28;20030;-73
2022/08/30 08:01:07;;;;;;;19.23;14.18;;;19.90;75.70;;;;;;5000089;28;20030;-73
2022/08/30 08:03:34;;;;;;;20.73;14.13;;;19.70;75.50;;;;;;5003754;28;20104;-72
2022/08/30 08:06:02;;;;;;;17.63;14.65;;;19.70;76.30;;;;;;5006431;28;20018;-72
2022/08/30 08:08:28;;;;;;;19.75;14.57;;;19.70;75.30;;;;;;5004636;28;20118;-73
2022/08/30 08:10:53;;;;;;;19.67;13.38;;;19.70;75.40;;;;;;5001424;28;20030;-72
2022/08/30 08:13:19;;;;;;;19.10;14.75;;;20.10;75.00;;;;;;5004033;28;20049;-72
2022/08/30 08:15:45;;;;;;;20.17;13.82;;;20.30;73.30;;;;;;4999234;28;20030;-74
2022/08/30 08:18:11;;;;;;;18.05;13.27;;;20.60;72.60;;;;;;5007809;28;20081;-73
2022/08/30 08:20:37;;;;;;;18.63;13.05;;;20.60;71.90;;;;;;4997885;28;20022;-72
2022/08/30 08:23:03;;;;;;;16.75;12.95;;;20.60;71.20;;;;;;5006186;28;20469;-72
2022/08/30 08:25:29;;;;;;;18.75;13.48;;;20.60;70.60;;;;;;5007101;28;20022;-72
2022/08/30 08:27:55;;;;;;;18.10;12.57;;;20.70;70.10;;;;;;5012313;28;20037;-72
2022/08/30 08:30:22;;;;;;;17.48;11.85;;;21.10;70.20;;;;;;4995370;28;20089;-72
2022/08/30 08:32:49;;;;;;;16.10;11.13;;;21.30;68.00;;;;;;4997258;28;20077;-72
2022/08/30 08:35:15;;;;;;;17.27;11.52;;;21.70;67.00;;;;;;5014114;28;20064;-72
2022/08/30 08:37:41;;;;;;;18.13;11.25;;;22.10;64.70;;;;;;5013863;28;20113;-73
2022/08/30 08:40:09;;;;;;;15.50;11.77;;;22.10;63.80;;;;;;5002403;28;20442;-73
2022/08/30 08:43:02;;;;;;;15.05;11.63;;;21.80;64.90;;;;;;5003993;28;20037;-72
2022/08/30 08:45:49;;;;;;;16.08;10.15;;;21.80;64.90;;;;;;4998727;28;20034;-75
2022/08/30 08:48:40;;;;;;;15.13;10.88;;;22.10;64.70;;;;;;5002754;28;20030;-73
2022/08/30 08:54:05;;;;;;;17.40;11.20;;;22.10;64.20;;;;;;5001547;28;20112;-74
2022/08/30 08:56:32;;;;;;;14.95;9.75;;;22.10;63.80;;;;;;5003169;28;20034;-73
2022/08/30 08:58:57;;;;;;;15.18;10.05;;;22.50;62.40;;;;;;5006189;28;20045;-73
2022/08/30 09:01:27;;;;;;;14.45;9.15;;;22.60;62.00;;;;;;5002228;28;20128;-73
2022/08/30 09:03:54;;;;;;;18.23;8.95;;;22.60;62.30;;;;;;4994786;28;20038;-73
2022/08/30 09:06:51;;;;;;;14.13;8.95;;;22.70;61.40;;;;;;5007564;28;20363;-73
2022/08/30 09:09:26;;;;;;;20.00;10.00;;;22.90;60.40;;;;;;5004399;28;20522;-75
2022/08/30 09:11:51;;;;;;;15.60;9.45;;;22.70;61.10;;;;;;5035076;28;20057;-74
2022/08/30 09:14:31;;;;;;;15.35;9.38;;;22.60;61.30;;;;;;5005372;28;20054;-74
2022/08/30 09:17:00;;;;;;;11.70;8.15;;;22.60;61.60;;;;;;5004957;28;20408;-73
2022/08/30 09:19:42;;;;;;;14.25;8.15;;;22.70;61.30;;;;;;5004406;28;20041;-74
2022/08/30 09:22:20;;;;;;;14.70;8.38;;;23.00;60.80;;;;;;5000248;28;20398;-75
2022/08/30 09:24:49;;;;;;;13.32;8.55;;;23.20;60.60;;;;;;4997018;28;20431;-75
2022/08/30 09:27:24;;;;;;;12.75;7.45;;;23.30;58.70;;;;;;5008806;28;20131;-74
2022/08/30 09:29:53;;;;;;;13.88;7.53;;;23.70;59.30;;;;;;5013676;28;20051;-74
2022/08/30 09:32:26;;;;;;;14.60;8.40;;;23.80;58.60;;;;;;5012491;28;20076;-75
2022/08/30 09:34:51;;;;;;;14.38;7.95;;;24.10;57.60;;;;;;5013059;28;20115;-74
2022/08/30 09:38:04;;;;;;;11.40;7.18;;;24.10;57.40;;;;;;4997439;28;20474;-74
2022/08/30 09:40:44;;;;;;;13.95;9.07;;;24.00;57.10;;;;;;5007623;28;20035;-74
2022/08/30 09:43:29;;;;;;;11.65;7.68;;;23.80;57.20;;;;;;5004434;28;20041;-74
2022/08/30 09:45:58;;;;;;;13.27;7.63;;;23.50;58.00;;;;;;5042936;28;20111;-74
2022/08/30 09:48:36;;;;;;;11.00;6.65;;;23.40;58.60;;;;;;5004102;28;20372;-74
2022/08/30 09:51:20;;;;;;;11.90;7.55;;;23.60;58.70;;;;;;4995593;28;20035;-75
2022/08/30 09:54:13;;;;;;;12.23;6.60;;;23.70;56.90;;;;;;4991465;28;20046;-74
2022/08/30 09:57:11;;;;;;;12.63;8.25;;;24.00;57.80;;;;;;5001729;28;20060;-75
2022/08/30 09:59:40;;;;;;;13.93;7.30;;;24.10;57.30;;;;;;4998689;28;20041;-74
2022/08/30 10:02:34;;;;;;;13.98;7.80;;;23.80;57.70;;;;;;5003214;28;20421;-74
2022/08/30 10:05:21;;;;;;;11.07;7.47;;;24.10;56.00;;;;;;4995495;28;20501;-73
2022/08/30 10:08:15;;;;;;;10.40;8.13;;;24.00;57.00;;;;;;5034158;28;20030;-75
2022/08/30 10:10:49;;;;;;;12.27;7.03;;;24.10;57.10;;;;;;5023851;28;20828;-75
2022/08/30 10:13:43;;;;;;;11.20;7.45;;;24.10;56.50;;;;;;5014838;28;20312;-74
2022/08/30 10:16:26;;;;;;;13.27;7.00;;;24.00;57.00;;;;;;5011147;28;20054;-74
2022/08/30 10:19:01;;;;;;;9.38;7.00;;;24.10;56.30;;;;;;5004185;28;20044;-74
2022/08/30 10:21:42;;;;;;;11.30;6.72;;;24.50;55.80;;;;;;5006123;28;20169;-74
2022/08/30 10:24:12;;;;;;;12.02;7.93;;;24.60;54.90;;;;;;4994489;28;20038;-74
2022/08/30 10:27:02;;;;;;;11.68;7.60;;;24.60;54.50;;;;;;5010209;28;20026;-75
2022/08/30 10:29:42;;;;;;;11.48;6.85;;;24.80;54.20;;;;;;5007381;28;20053;-75
2022/08/30 10:32:11;;;;;;;12.23;7.18;;;25.20;53.50;;;;;;5010613;28;20040;-75
2022/08/30 10:34:41;;;;;;;12.77;7.40;;;25.30;52.90;;;;;;5008293;28;20041;-74
2022/08/30 10:37:12;;;;;;;12.77;6.78;;;25.00;53.30;;;;;;5007471;28;20474;-74
2022/08/30 10:41:11;;;;;;;12.30;7.38;;;25.10;53.40;;;;;;5012374;28;20035;-73
2022/08/30 10:42:49;;;;;;;13.60;7.45;;;24.70;54.80;;;;;;4994942;28;20037;-75
2022/08/30 10:45:16;;;;;;;12.57;8.68;;;24.90;53.00;;;;;;4991660;28;20027;-74
2022/08/30 10:47:56;;;;;;;13.00;7.20;;;24.80;53.20;;;;;;4993611;28;20057;-74
2022/08/30 10:50:28;;;;;;;12.15;7.55;;;24.70;54.10;;;;;;4992035;28;20534;-74
2022/08/30 10:53:19;;;;;;;12.20;6.93;;;24.90;54.10;;;;;;4994790;28;20128;-74
2022/08/30 10:55:57;;;;;;;11.85;6.30;;;25.10;54.50;;;;;;4992447;28;20057;-74
2022/08/30 10:58:23;;;;;;;12.02;6.93;;;25.20;53.40;;;;;;4990696;28;20184;-74
2022/08/30 11:01:21;;;;;;;10.18;6.45;;;25.60;52.60;;;;;;4994965;28;20041;-74
2022/08/30 11:03:53;;;;;;;11.23;6.93;;;25.60;51.20;;;;;;4991512;28;20057;-74
2022/08/30 11:06:46;;;;;;;12.93;8.48;;;25.70;51.70;;;;;;4988907;28;20038;-74
2022/08/30 11:09:23;;;;;;;9.45;6.72;;;25.50;52.30;;;;;;4990892;28;20029;-75
2022/08/30 11:12:20;;;;;;;14.48;7.78;;;25.20;52.70;;;;;;4992873;28;20049;-74
2022/08/30 11:14:46;;;;;;;12.65;7.20;;;25.30;53.00;;;;;;4990411;28;20058;-74
2022/08/30 11:17:21;;;;;;;15.57;6.82;;;25.50;52.00;;;;;;4999903;28;20025;-73
2022/08/30 11:19:47;;;;;;;13.48;6.75;;;25.70;51.60;;;;;;4999806;28;20084;-72
2022/08/30 11:22:35;;;;;;;14.82;7.70;;;26.00;50.70;;;;;;5001357;28;20045;-72
2022/08/30 11:25:36;;;;;;;13.23;7.78;;;25.40;51.50;;;;;;4999738;28;20512;-73
2022/08/30 11:28:04;;;;;;;12.48;7.68;;;25.20;52.20;;;;;;5001682;28;20034;-73
2022/08/30 11:30:31;;;;;;;13.38;7.00;;;25.20;51.70;;;;;;5000939;28;20060;-73
2022/08/30 11:33:11;;;;;;;11.35;6.05;;;25.30;52.30;;;;;;5003871;28;20494;-72
2022/08/30 11:35:40;;;;;;;14.57;6.28;;;25.80;51.10;;;;;;5000711;28;20050;-72
2022/08/30 11:38:38;;;;;;;13.35;7.15;;;25.80;51.30;;;;;;4999363;28;20040;-72
2022/08/30 11:41:29;;;;;;;12.63;7.63;;;25.80;50.60;;;;;;4999414;28;20166;-72
2022/08/30 11:43:56;;;;;;;12.35;8.02;;;25.90;49.80;;;;;;4999187;28;20116;-72
2022/08/30 11:46:27;;;;;;;13.95;8.38;;;25.80;49.50;;;;;;4995926;28;20085;-72
2022/08/30 11:49:00;;;;;;;14.68;9.55;;;25.60;50.40;;;;;;4992622;28;20034;-72
2022/08/30 11:51:34;;;;;;;14.52;8.05;;;25.50;51.00;;;;;;4995259;28;20033;-74
2022/08/30 11:54:23;;;;;;;11.88;7.18;;;25.60;50.90;;;;;;5005852;28;20054;-73
2022/08/30 11:57:30;;;;;;;14.88;6.47;;;25.70;50.50;;;;;;4998093;28;20027;-72
2022/08/30 12:00:25;;;;;;;10.20;7.00;;;25.50;50.80;;;;;;4987179;28;20460;-73
2022/08/30 12:03:02;;;;;;;14.25;6.93;;;25.30;51.00;;;;;;5002364;28;20370;-71
2022/08/30 12:05:37;;;;;;;10.35;6.85;;;25.20;51.10;;;;;;5005722;28;20064;-72
2022/08/30 12:08:33;;;;;;;11.98;7.53;;;25.30;50.90;;;;;;5015586;28;20042;-72
2022/08/30 12:11:27;;;;;;;13.40;6.80;;;25.60;50.50;;;;;;5006904;28;20041;-72
2022/08/30 12:13:54;;;;;;;11.23;6.65;;;26.10;49.30;;;;;;4991914;28;20050;-71
2022/08/30 12:16:33;;;;;;;14.55;6.55;;;26.30;49.00;;;;;;5003460;28;20092;-71
2022/08/30 12:19:14;;;;;;;13.07;6.60;;;26.30;49.40;;;;;;5000956;28;20393;-72
2022/08/30 12:21:40;;;;;;;10.82;5.75;;;26.60;48.00;;;;;;5000449;28;20033;-72
2022/08/30 12:24:25;;;;;;;11.48;6.28;;;26.70;48.00;;;;;;5002975;28;20068;-73
2022/08/30 12:26:51;;;;;;;;;;;26.70;47.20;;;;;;4994895;28;20042;-72
2022/08/30 12:29:29;;;;;;;9.95;6.00;;;26.60;46.70;;;;;;5006097;28;20285;-72
2022/08/30 12:31:58;;;;;;;11.90;6.20;;;26.60;46.80;;;;;;5000670;28;20137;-72
2022/08/30 12:34:50;;;;;;;12.48;6.63;;;26.60;46.50;;;;;;5002953;28;20045;-72
2022/08/30 12:37:35;;;;;;;11.55;5.30;;;26.80;46.50;;;;;;5003538;28;20134;-72
2022/08/30 12:40:14;;;;;;;11.02;6.03;;;27.10;46.60;;;;;;5004770;28;20041;-71
2022/08/30 12:42:52;;;;;;;15.10;5.38;;;27.00;46.50;;;;;;4998924;28;20121;-72
2022/08/30 12:45:22;;;;;;;11.93;5.40;;;26.80;46.70;;;;;;5010516;28;20043;-73
2022/08/30 12:48:06;;;;;;;11.98;5.55;;;27.00;46.70;;;;;;5001284;28;20066;-71
2022/08/30 12:50:53;;;;;;;10.80;6.03;;;27.10;45.50;;;;;;4996302;28;20533;-71
2022/08/30 12:53:27;;;;;;;11.80;5.05;;;27.10;45.00;;;;;;4995298;28;20428;-72